Time;durP1;ratioP1;P1;durP2;ratioP2;P2;SDS_P1;SDS_P2;PMS_P1;PMS_P2;Temp;Humidity;BMP_temperature;BMP_pressure;BME280_temperature;BME280_humidity;BME280_pressure;Samples;Min_cycle;Max_cycle;Signal;HPM_P1;HPM_P2
2022/02/06 00:01:02;;;;;;;7.50;1.90;;;5.20;99.90;;;;;;5055746;28;20178;-94
2022/02/06 00:03:30;;;;;;;6.87;1.83;;;5.20;99.90;;;;;;5487006;22;20236;-96
2022/02/06 00:05:56;;;;;;;7.83;1.50;;;5.10;99.90;;;;;;5071076;28;20255;-96
2022/02/06 00:08:22;;;;;;;5.63;1.50;;;5.00;99.90;;;;;;5078874;28;20268;-96
2022/02/06 00:10:48;;;;;;;4.37;1.50;;;5.00;99.90;;;;;;5078641;28;20208;-96
2022/02/06 00:13:14;;;;;;;3.63;1.40;;;5.00;99.90;;;;;;5079615;28;20231;-96
2022/02/06 00:15:40;;;;;;;12.83;1.77;;;5.00;99.90;;;;;;5077376;28;20638;-96
2022/02/06 00:18:06;;;;;;;7.40;1.97;;;5.00;99.90;;;;;;5076393;28;20248;-96
2022/02/06 00:20:36;;;;;;;6.10;1.47;;;4.90;99.90;;;;;;5075741;28;20173;-96
2022/02/06 00:23:07;;;;;;;3.23;1.40;;;4.90;99.90;;;;;;5075834;28;20231;-96
2022/02/06 00:25:48;;;;;;;7.13;1.53;;;4.80;99.90;;;;;;5075752;28;20169;-96
2022/02/06 00:30:57;;;;;;;5.23;1.90;;;4.80;99.90;;;;;;5076599;28;20200;-95
2022/02/06 00:36:00;;;;;;;5.53;1.60;;;4.80;99.90;;;;;;5076781;28;20180;-95
2022/02/06 00:43:17;;;;;;;6.97;2.37;;;4.80;99.90;;;;;;5096274;28;20169;-96
2022/02/06 00:45:43;;;;;;;6.27;1.93;;;4.70;99.90;;;;;;5095312;28;20520;-95
2022/02/06 00:48:09;;;;;;;9.30;1.80;;;4.80;99.90;;;;;;5095098;28;20181;-95
2022/02/06 00:50:39;;;;;;;4.87;1.80;;;4.70;99.90;;;;;;5075942;28;20181;-95
2022/02/06 00:53:08;;;;;;;8.13;1.53;;;4.70;99.90;;;;;;5081825;28;20231;-94
2022/02/06 00:55:34;;;;;;;5.63;1.80;;;4.70;99.90;;;;;;5094798;28;20183;-95
2022/02/06 00:58:00;;;;;;;3.90;1.60;;;4.70;99.90;;;;;;5095037;28;20220;-96
2022/02/06 01:00:26;;;;;;;5.73;1.57;;;4.70;99.90;;;;;;5095017;28;20181;-96
2022/02/06 01:02:52;;;;;;;8.70;2.00;;;4.60;99.90;;;;;;5095118;28;20208;-95
2022/02/06 01:05:19;;;;;;;4.13;1.67;;;4.60;99.90;;;;;;5077150;28;20310;-94
2022/02/06 01:07:44;;;;;;;8.37;2.50;;;4.60;99.90;;;;;;5074274;28;20193;-95
2022/02/06 01:10:10;;;;;;;8.33;1.80;;;4.60;99.90;;;;;;5074898;28;20193;-95
2022/02/06 01:12:40;;;;;;;6.10;1.80;;;4.60;99.90;;;;;;5078238;28;20173;-95
2022/02/06 01:15:14;;;;;;;7.80;1.67;;;4.60;99.90;;;;;;5081007;28;20276;-96
2022/02/06 01:17:50;;;;;;;4.33;1.53;;;4.60;99.90;;;;;;5072824;28;20225;-93
2022/02/06 01:20:23;;;;;;;4.67;2.00;;;4.60;99.90;;;;;;5095249;28;20183;-95
2022/02/06 01:23:01;;;;;;;5.60;1.67;;;4.60;99.90;;;;;;5099568;28;20196;-95
2022/02/06 01:25:33;;;;;;;3.70;1.67;;;4.60;99.90;;;;;;5099591;28;20570;-95
2022/02/06 01:28:07;;;;;;;5.07;1.57;;;4.60;99.90;;;;;;5084809;28;20580;-94
2022/02/06 01:33:06;;;;;;;5.43;1.40;;;4.60;99.90;;;;;;5101966;28;20172;-96
2022/02/06 01:35:40;;;;;;;5.57;1.70;;;4.60;99.90;;;;;;5080887;28;20188;-95
2022/02/06 01:38:21;;;;;;;3.53;1.50;;;4.60;99.90;;;;;;5079246;28;20208;-95
2022/02/06 01:43:18;;;;;;;4.63;1.60;;;4.60;99.90;;;;;;5078972;28;20508;-95
2022/02/06 01:46:40;;;;;;;4.03;1.57;;;4.60;99.90;;;;;;5077179;28;20302;-95
2022/02/06 02:03:29;;;;;;;3.57;1.53;;;4.40;99.90;;;;;;5078412;28;20165;-95
2022/02/06 02:15:43;;;;;;;5.17;1.97;;;4.40;99.90;;;;;;5097286;28;20259;-96
2022/02/06 02:21:09;;;;;;;6.20;2.00;;;4.40;99.90;;;;;;5096671;28;20211;-94
2022/02/06 02:26:42;;;;;;;3.63;1.83;;;4.30;99.90;;;;;;5097621;28;20176;-96
2022/02/06 02:43:07;;;;;;;6.63;1.87;;;4.30;99.90;;;;;;5060065;28;20239;-94
2022/02/06 02:45:51;;;;;;;7.23;1.80;;;4.30;99.90;;;;;;5058168;28;20178;-95
2022/02/06 02:48:19;;;;;;;3.20;1.50;;;4.30;99.90;;;;;;5058359;28;20177;-94
2022/02/06 02:50:53;;;;;;;4.33;1.80;;;4.30;99.90;;;;;;5057958;28;20604;-95
2022/02/06 02:53:27;;;;;;;6.57;1.83;;;4.30;99.90;;;;;;5071891;28;20185;-96
2022/02/06 02:58:43;;;;;;;3.03;1.60;;;4.40;99.90;;;;;;5079682;28;20254;-96
2022/02/06 03:01:23;;;;;;;2.83;1.30;;;4.40;99.90;;;;;;5078020;28;20174;-96
2022/02/06 03:03:48;;;;;;;2.83;1.40;;;4.40;99.90;;;;;;5077161;28;20244;-95
2022/02/06 03:06:14;;;;;;;3.23;1.80;;;4.40;99.90;;;;;;5077304;28;20192;-94
2022/02/06 03:08:42;;;;;;;3.93;1.53;;;4.40;99.90;;;;;;5077153;28;20185;-95
2022/02/06 03:11:10;;;;;;;5.33;1.90;;;4.40;99.90;;;;;;5077181;28;20177;-96
2022/02/06 03:13:48;;;;;;;5.60;2.00;;;4.50;99.90;;;;;;5077493;28;20181;-96
2022/02/06 03:16:19;;;;;;;5.73;1.40;;;4.50;99.90;;;;;;5077132;28;20180;-95
2022/02/06 03:18:55;;;;;;;3.63;1.50;;;4.50;99.90;;;;;;5077054;28;20180;-95
2022/02/06 03:21:25;;;;;;;4.83;1.57;;;4.50;99.90;;;;;;5077015;28;20234;-96
2022/02/06 03:23:52;;;;;;;5.63;1.47;;;4.60;99.90;;;;;;5079561;28;20185;-96
2022/02/06 03:26:19;;;;;;;3.87;1.67;;;4.60;99.90;;;;;;5096387;28;20176;-96
2022/02/06 03:28:45;;;;;;;4.27;1.73;;;4.60;99.90;;;;;;5090274;28;20220;-96
2022/02/06 03:31:11;;;;;;;3.30;1.23;;;4.70;99.90;;;;;;5097730;28;20267;-96
2022/02/06 03:33:37;;;;;;;4.37;1.40;;;4.70;99.90;;;;;;5094490;28;20192;-95
2022/02/06 03:36:03;;;;;;;3.77;1.57;;;4.70;99.90;;;;;;5076385;28;20191;-94
2022/02/06 03:38:29;;;;;;;3.70;1.60;;;4.80;99.90;;;;;;5076052;28;20227;-95
2022/02/06 03:41:06;;;;;;;1.87;1.10;;;4.80;99.90;;;;;;5076394;28;20177;-95
2022/02/06 03:46:08;;;;;;;3.60;1.30;;;4.80;99.90;;;;;;5077983;28;20511;-96
2022/02/06 03:48:46;;;;;;;2.53;1.20;;;4.80;99.90;;;;;;5076272;28;20605;-96
2022/02/06 03:51:21;;;;;;;3.37;1.10;;;4.80;99.90;;;;;;5078097;28;20177;-96
2022/02/06 03:53:50;;;;;;;2.77;1.00;;;4.90;99.90;;;;;;5096935;28;20180;-94
2022/02/06 03:56:16;;;;;;;2.83;1.20;;;4.90;99.90;;;;;;5085097;28;20621;-96
2022/02/06 03:58:42;;;;;;;2.80;1.20;;;5.00;99.90;;;;;;5084422;28;20184;-96
2022/02/06 04:01:08;;;;;;;0.80;0.80;;;5.00;99.90;;;;;;5096304;28;20187;-96
2022/02/06 04:03:33;;;;;;;3.93;1.07;;;5.00;99.90;;;;;;5096691;28;20256;-95
2022/02/06 04:05:59;;;;;;;2.70;1.23;;;5.00;99.90;;;;;;5101624;28;20177;-96
2022/02/06 04:08:27;;;;;;;2.77;1.20;;;5.00;99.90;;;;;;5103067;28;20169;-96
2022/02/06 04:10:53;;;;;;;1.63;0.90;;;5.10;99.90;;;;;;5089964;28;20188;-96
2022/02/06 04:13:23;;;;;;;3.20;1.13;;;5.10;99.90;;;;;;5087388;28;20181;-96
2022/02/06 04:15:56;;;;;;;2.90;1.20;;;5.10;99.90;;;;;;5086383;28;20173;-96
2022/02/06 04:21:00;;;;;;;3.03;1.20;;;5.20;99.90;;;;;;5088037;28;20173;-96
2022/02/06 04:23:26;;;;;;;1.00;0.90;;;5.20;99.90;;;;;;5086711;28;20177;-96
2022/02/06 04:25:52;;;;;;;3.53;1.27;;;5.20;99.90;;;;;;5084937;28;20203;-96
2022/02/06 04:28:18;;;;;;;2.80;1.30;;;5.20;99.90;;;;;;5084944;28;20185;-96
2022/02/06 04:30:44;;;;;;;2.17;1.17;;;5.20;99.90;;;;;;5083470;28;20264;-96
2022/02/06 04:33:10;;;;;;;0.90;0.80;;;5.20;99.90;;;;;;5083617;28;20624;-96
2022/02/06 04:35:40;;;;;;;1.93;1.00;;;5.20;99.90;;;;;;5080086;28;20188;-96
2022/02/06 04:38:34;;;;;;;2.23;1.00;;;5.20;99.90;;;;;;5083304;28;20205;-96
2022/02/06 04:41:24;;;;;;;3.07;1.07;;;5.20;99.90;;;;;;5082486;28;20184;-96
2022/02/06 04:54:44;;;;;;;1.77;0.90;;;5.20;99.90;;;;;;5104530;28;20230;-96
2022/02/06 05:16:31;;;;;;;1.87;1.07;;;5.30;99.90;;;;;;5081324;28;20216;-96
2022/02/06 05:19:31;;;;;;;2.40;1.10;;;5.30;99.90;;;;;;5079791;28;20189;-96
2022/02/06 05:22:20;;;;;;;1.87;0.90;;;5.30;99.90;;;;;;5079132;28;20169;-96
2022/02/06 05:30:13;;;;;;;2.97;1.30;;;5.30;99.90;;;;;;5099655;28;20268;-95
2022/02/06 05:32:58;;;;;;;3.83;0.90;;;5.30;99.90;;;;;;5098749;28;20208;-95
2022/02/06 05:35:24;;;;;;;2.30;0.80;;;5.30;99.90;;;;;;5090673;28;20200;-96
2022/02/06 05:37:51;;;;;;;3.37;1.20;;;5.30;99.90;;;;;;5078039;28;20209;-96
2022/02/06 05:40:16;;;;;;;1.40;0.87;;;5.30;99.90;;;;;;5078112;28;20166;-96
2022/02/06 05:42:43;;;;;;;1.37;1.00;;;5.30;99.90;;;;;;5078128;28;20188;-96
2022/02/06 05:45:11;;;;;;;2.20;1.00;;;5.30;99.90;;;;;;5077670;28;20189;-95
2022/02/06 05:47:39;;;;;;;4.57;1.60;;;5.30;99.90;;;;;;5077087;28;20196;-96
2022/02/06 05:50:05;;;;;;;2.67;1.10;;;5.30;99.90;;;;;;5061125;28;20604;-94
2022/02/06 05:52:32;;;;;;;2.00;1.00;;;5.30;99.90;;;;;;5077927;28;20181;-92
2022/02/06 05:54:58;;;;;;;1.67;1.00;;;5.30;99.90;;;;;;5074234;28;20565;-96
2022/02/06 05:57:24;;;;;;;0.80;0.80;;;5.30;99.90;;;;;;5074079;28;20217;-93
2022/02/06 05:59:50;;;;;;;1.67;1.10;;;5.30;99.90;;;;;;5073912;28;20205;-94
2022/02/06 06:02:17;;;;;;;0.90;0.80;;;5.30;99.90;;;;;;5074043;28;20572;-95
2022/02/06 06:04:43;;;;;;;1.57;0.80;;;5.30;99.90;;;;;;5075262;28;20322;-95
2022/02/06 06:07:09;;;;;;;1.43;0.80;;;5.40;99.90;;;;;;5078223;28;20188;-96
2022/02/06 06:09:34;;;;;;;1.50;0.90;;;5.40;99.90;;;;;;5078427;28;20177;-95
2022/02/06 06:12:00;;;;;;;1.73;0.90;;;5.40;99.90;;;;;;5078006;28;20276;-95
2022/02/06 06:14:29;;;;;;;1.87;0.90;;;5.40;99.90;;;;;;5078120;28;20665;-94
2022/02/06 06:16:56;;;;;;;2.50;0.80;;;5.40;99.90;;;;;;5077785;28;20662;-93
2022/02/06 06:19:22;;;;;;;1.23;0.70;;;5.40;99.90;;;;;;5078213;28;20184;-94
2022/02/06 06:21:54;;;;;;;1.80;0.70;;;5.40;99.90;;;;;;5077633;28;20222;-95
2022/02/06 06:24:24;;;;;;;1.23;1.03;;;5.40;99.90;;;;;;5077804;28;20195;-94
2022/02/06 06:26:50;;;;;;;1.03;0.80;;;5.40;99.90;;;;;;5078699;28;20162;-95
2022/02/06 06:29:16;;;;;;;0.87;0.60;;;5.40;99.90;;;;;;5087328;28;20272;-95
2022/02/06 06:31:42;;;;;;;0.90;0.80;;;5.40;99.90;;;;;;5097627;28;20180;-95
2022/02/06 06:34:08;;;;;;;1.90;0.80;;;5.50;99.90;;;;;;5097110;28;20188;-95
2022/02/06 06:36:35;;;;;;;1.73;0.70;;;5.50;99.90;;;;;;5085687;28;20185;-96
2022/02/06 06:39:04;;;;;;;2.13;1.00;;;5.50;99.90;;;;;;5097766;28;20229;-94
2022/02/06 06:41:30;;;;;;;1.30;0.70;;;5.50;99.90;;;;;;5097834;28;20601;-95
2022/02/06 06:43:55;;;;;;;1.07;0.77;;;5.50;99.90;;;;;;5097739;28;20339;-95
2022/02/06 06:46:21;;;;;;;1.30;1.00;;;5.50;99.90;;;;;;5097641;28;20183;-95
2022/02/06 06:48:47;;;;;;;2.03;0.87;;;5.50;99.90;;;;;;5097776;28;20210;-95
2022/02/06 06:51:14;;;;;;;3.63;1.00;;;5.50;99.90;;;;;;5097127;28;20499;-95
2022/02/06 06:53:43;;;;;;;2.43;0.90;;;5.50;99.90;;;;;;5097751;28;20226;-95
2022/02/06 06:56:28;;;;;;;2.10;0.93;;;5.60;99.90;;;;;;5097339;28;20211;-95
2022/02/06 06:58:54;;;;;;;2.27;1.00;;;5.50;99.90;;;;;;5077045;28;20204;-95
2022/02/06 07:04:04;;;;;;;0.93;0.70;;;5.60;99.90;;;;;;5078447;28;20297;-95
2022/02/06 07:06:31;;;;;;;4.00;1.10;;;5.60;99.90;;;;;;5076510;28;20675;-96
2022/02/06 07:08:57;;;;;;;0.80;0.73;;;5.60;99.90;;;;;;5076729;28;20177;-96
2022/02/06 07:11:24;;;;;;;2.20;0.80;;;5.60;99.90;;;;;;5079383;28;20621;-95
2022/02/06 07:13:49;;;;;;;1.30;0.90;;;5.60;99.90;;;;;;5086058;28;20200;-95
2022/02/06 07:16:15;;;;;;;2.07;1.10;;;5.60;99.90;;;;;;5090478;28;20198;-96
2022/02/06 07:18:41;;;;;;;0.80;0.77;;;5.60;99.90;;;;;;5096773;28;20212;-94
2022/02/06 07:21:06;;;;;;;2.10;0.80;;;5.60;99.90;;;;;;5097353;28;20234;-95
2022/02/06 07:23:32;;;;;;;2.27;1.00;;;5.60;99.90;;;;;;5097161;28;20650;-95
2022/02/06 07:26:02;;;;;;;2.20;0.90;;;5.60;99.90;;;;;;5097252;28;20204;-95
2022/02/06 07:28:30;;;;;;;1.10;0.70;;;5.60;99.90;;;;;;5097384;28;20271;-96
2022/02/06 07:30:55;;;;;;;1.87;0.80;;;5.60;99.90;;;;;;5097756;28;20202;-95
2022/02/06 07:33:21;;;;;;;1.00;0.70;;;5.60;99.90;;;;;;5097200;28;20172;-96
2022/02/06 07:35:48;;;;;;;0.70;0.60;;;5.70;99.90;;;;;;5085169;28;20185;-95
2022/02/06 07:38:14;;;;;;;0.93;0.70;;;5.70;99.90;;;;;;5075798;28;20204;-96
2022/02/06 07:40:42;;;;;;;4.53;0.67;;;5.60;99.90;;;;;;5076552;28;20181;-95
2022/02/06 07:43:08;;;;;;;0.97;0.63;;;5.60;99.90;;;;;;5076322;28;20188;-95
2022/02/06 07:45:38;;;;;;;0.97;0.80;;;5.60;99.90;;;;;;5075939;28;20174;-95
2022/02/06 07:48:05;;;;;;;0.73;0.60;;;5.70;99.90;;;;;;5076231;28;20188;-95
2022/02/06 07:50:31;;;;;;;1.07;0.70;;;5.70;99.90;;;;;;5076044;28;20544;-94
2022/02/06 07:52:57;;;;;;;0.70;0.50;;;5.60;99.90;;;;;;5076151;28;20173;-94
2022/02/06 07:55:23;;;;;;;0.80;0.60;;;5.60;99.90;;;;;;5075935;28;20173;-95
2022/02/06 07:57:48;;;;;;;1.07;0.60;;;5.60;99.90;;;;;;5076246;28;20289;-96
2022/02/06 08:00:16;;;;;;;2.10;0.60;;;5.60;99.90;;;;;;5076194;28;20177;-95
2022/02/06 08:02:43;;;;;;;1.77;0.70;;;5.70;99.90;;;;;;5076741;28;20177;-96
2022/02/06 08:05:10;;;;;;;0.90;0.60;;;5.70;99.90;;;;;;5076831;28;20188;-94
2022/02/06 08:07:37;;;;;;;1.00;0.53;;;5.70;99.90;;;;;;5087485;28;20172;-96
2022/02/06 08:10:04;;;;;;;0.53;0.43;;;5.70;99.90;;;;;;5095006;28;20508;-92
2022/02/06 08:12:35;;;;;;;1.40;0.37;;;5.60;99.90;;;;;;5090378;28;20183;-92
2022/02/06 08:15:04;;;;;;;0.80;0.50;;;5.60;99.90;;;;;;5092946;28;20179;-95
2022/02/06 08:17:31;;;;;;;2.23;0.60;;;5.60;99.90;;;;;;5083729;28;20212;-95
2022/02/06 08:20:01;;;;;;;0.60;0.50;;;5.60;99.90;;;;;;5088646;28;20181;-96
2022/02/06 08:22:27;;;;;;;0.60;0.40;;;5.60;99.90;;;;;;5097546;28;20180;-96
2022/02/06 08:24:53;;;;;;;0.77;0.57;;;5.60;99.90;;;;;;5094020;28;20176;-95
2022/02/06 08:27:21;;;;;;;1.83;0.50;;;5.70;99.90;;;;;;5076115;28;20260;-96
2022/02/06 08:29:47;;;;;;;0.60;0.60;;;5.60;99.90;;;;;;5077518;28;20181;-96
2022/02/06 08:32:16;;;;;;;0.70;0.50;;;5.70;99.90;;;;;;5081022;28;20602;-94
2022/02/06 08:34:42;;;;;;;1.20;0.60;;;5.70;99.90;;;;;;5088199;28;20172;-96
2022/02/06 08:37:09;;;;;;;0.97;0.50;;;5.70;99.90;;;;;;5087203;28;20204;-94
2022/02/06 08:39:37;;;;;;;0.90;0.50;;;5.70;99.90;;;;;;5076585;28;20181;-96
2022/02/06 08:42:06;;;;;;;2.93;0.50;;;5.70;99.90;;;;;;5076243;28;20623;-96
2022/02/06 08:44:33;;;;;;;0.60;0.50;;;5.60;99.90;;;;;;5071830;28;20608;-96
2022/02/06 08:46:59;;;;;;;0.50;0.40;;;5.60;99.90;;;;;;5065547;28;20178;-95
2022/02/06 08:49:26;;;;;;;1.70;0.40;;;5.70;99.90;;;;;;5072076;28;20185;-95
2022/02/06 08:51:53;;;;;;;0.63;0.50;;;5.70;99.90;;;;;;5076756;28;20188;-96
2022/02/06 08:54:25;;;;;;;0.97;0.50;;;5.70;99.90;;;;;;5076872;28;20184;-95
2022/02/06 08:56:59;;;;;;;0.50;0.40;;;5.70;99.90;;;;;;5075237;28;20209;-95
2022/02/06 08:59:25;;;;;;;0.40;0.40;;;5.70;99.90;;;;;;5075309;28;20198;-96
2022/02/06 09:01:51;;;;;;;1.10;0.57;;;5.60;99.90;;;;;;5076856;28;20181;-96
2022/02/06 09:04:16;;;;;;;0.63;0.47;;;5.70;99.90;;;;;;5074823;28;20231;-96
2022/02/06 09:06:42;;;;;;;1.53;0.50;;;5.60;99.90;;;;;;5075173;28;20177;-96
2022/02/06 09:09:09;;;;;;;0.63;0.40;;;5.60;99.90;;;;;;5075415;28;20257;-96
2022/02/06 09:11:34;;;;;;;0.50;0.40;;;5.70;99.90;;;;;;5075824;28;20174;-96
2022/02/06 09:14:00;;;;;;;0.77;0.40;;;5.70;99.90;;;;;;5077596;28;20185;-94
2022/02/06 09:16:26;;;;;;;0.70;0.43;;;5.70;99.90;;;;;;5078292;28;20188;-96
2022/02/06 09:18:53;;;;;;;0.93;0.50;;;5.70;99.90;;;;;;5078399;28;20181;-95
2022/02/06 09:21:21;;;;;;;0.83;0.47;;;5.70;99.90;;;;;;5078846;28;20195;-96
2022/02/06 09:23:47;;;;;;;0.77;0.50;;;5.70;99.90;;;;;;5079230;28;20621;-96
2022/02/06 09:26:14;;;;;;;0.63;0.30;;;5.70;99.90;;;;;;5079009;28;20184;-96
2022/02/06 09:28:40;;;;;;;1.07;0.47;;;5.80;99.90;;;;;;5081578;28;20548;-96
2022/02/06 09:31:06;;;;;;;1.10;0.50;;;5.80;99.90;;;;;;5079023;28;20212;-95
2022/02/06 09:35:58;;;;;;;1.47;0.33;;;5.80;99.90;;;;;;5079825;28;20177;-96
2022/02/06 09:38:24;;;;;;;0.50;0.47;;;5.80;99.90;;;;;;5079480;28;20235;-96
2022/02/06 09:40:54;;;;;;;0.80;0.60;;;5.90;99.90;;;;;;5082423;28;20181;-96
2022/02/06 09:43:22;;;;;;;0.60;0.47;;;5.90;99.90;;;;;;5085276;28;20181;-96
2022/02/06 09:45:52;;;;;;;0.57;0.43;;;5.90;99.90;;;;;;5085499;28;20188;-96
2022/02/06 09:48:19;;;;;;;0.60;0.50;;;5.90;99.90;;;;;;5084702;28;20248;-95
2022/02/06 09:50:46;;;;;;;0.70;0.40;;;5.90;99.90;;;;;;5081273;28;20196;-96
2022/02/06 09:53:21;;;;;;;0.80;0.50;;;5.90;99.90;;;;;;5082180;28;20190;-96
2022/02/06 09:55:48;;;;;;;1.17;0.50;;;6.00;99.90;;;;;;5084310;28;20187;-96
2022/02/06 10:00:53;;;;;;;0.77;0.50;;;6.00;99.90;;;;;;5085601;28;20210;-96
2022/02/06 10:03:25;;;;;;;0.67;0.37;;;6.00;99.90;;;;;;5084209;28;20366;-96
2022/02/06 10:05:51;;;;;;;0.47;0.43;;;6.00;99.90;;;;;;5066171;28;20215;-96
2022/02/06 10:08:54;;;;;;;0.50;0.33;;;6.10;99.90;;;;;;5084463;28;20212;-96
2022/02/06 10:11:25;;;;;;;1.30;0.60;;;6.10;99.90;;;;;;5070027;28;20510;-96
2022/02/06 10:13:53;;;;;;;1.17;0.30;;;6.20;99.90;;;;;;5087690;28;20191;-96
2022/02/06 10:16:20;;;;;;;1.00;0.50;;;6.10;99.90;;;;;;5068966;28;20204;-96
2022/02/06 10:18:47;;;;;;;0.60;0.40;;;6.10;99.90;;;;;;5083565;28;20296;-96
2022/02/06 10:21:21;;;;;;;0.77;0.40;;;6.10;99.90;;;;;;5085565;28;20169;-96
2022/02/06 10:24:10;;;;;;;1.57;0.40;;;6.10;99.90;;;;;;5085364;28;20215;-96
2022/02/06 10:26:53;;;;;;;0.73;0.50;;;6.10;99.90;;;;;;5087098;28;20181;-96
2022/02/06 10:32:12;;;;;;;1.17;0.50;;;6.10;99.90;;;;;;5071528;22;20755;-96
2022/02/06 10:34:39;;;;;;;1.57;0.50;;;6.10;99.90;;;;;;5066778;28;20182;-96
2022/02/06 10:37:36;;;;;;;0.57;0.40;;;6.10;99.90;;;;;;5064994;28;20206;-96
2022/02/06 10:40:18;;;;;;;1.07;0.50;;;6.20;99.90;;;;;;5000295;28;20251;-96
2022/02/06 10:42:45;;;;;;;0.40;0.40;;;6.10;99.90;;;;;;5065764;28;20360;-96
2022/02/06 10:45:21;;;;;;;0.30;0.30;;;6.20;99.90;;;;;;5068965;28;20181;-96
2022/02/06 10:47:49;;;;;;;0.77;0.37;;;6.20;99.90;;;;;;5066421;28;20686;-96
2022/02/06 10:50:25;;;;;;;0.60;0.50;;;6.20;99.90;;;;;;5064580;28;20524;-96
2022/02/06 10:52:53;;;;;;;0.77;0.37;;;6.30;99.90;;;;;;5067851;28;20181;-96
2022/02/06 10:55:24;;;;;;;0.50;0.40;;;6.30;99.90;;;;;;5067470;28;20193;-96
2022/02/06 10:58:03;;;;;;;0.47;0.40;;;6.40;99.90;;;;;;5066280;28;20838;-96
2022/02/06 11:00:39;;;;;;;0.50;0.47;;;6.30;99.90;;;;;;5068215;28;20304;-96
2022/02/06 11:03:29;;;;;;;1.00;0.40;;;6.40;99.90;;;;;;5066921;28;20241;-96
2022/02/06 11:06:06;;;;;;;2.50;0.50;;;6.40;99.90;;;;;;5069146;28;20247;-96
2022/02/06 11:08:34;;;;;;;1.97;0.50;;;6.40;99.90;;;;;;5064234;28;20231;-95
2022/02/06 11:11:25;;;;;;;;;;;;;;;;;;;;;
2022/02/06 11:14:13;;;;;;;1.33;0.50;;;6.50;99.90;;;;;;5066323;28;20166;-96
2022/02/06 11:16:50;;;;;;;1.00;0.40;;;6.40;99.90;;;;;;5071704;28;20192;-96
2022/02/06 11:19:17;;;;;;;0.80;0.50;;;6.50;99.90;;;;;;5088893;28;20492;-96
2022/02/06 11:22:12;;;;;;;0.47;0.40;;;6.50;99.90;;;;;;5085967;28;20173;-96
2022/02/06 11:24:40;;;;;;;0.90;0.67;;;6.50;99.90;;;;;;5062408;28;20605;-96
2022/02/06 11:27:08;;;;;;;0.40;0.30;;;6.50;99.90;;;;;;5081482;28;20180;-96
2022/02/06 11:29:35;;;;;;;0.50;0.30;;;6.50;99.90;;;;;;5085788;28;20264;-96
2022/02/06 11:32:05;;;;;;;1.00;0.40;;;6.50;99.90;;;;;;5085892;28;20243;-96
2022/02/06 11:34:31;;;;;;;0.33;0.33;;;6.50;99.90;;;;;;5084636;28;20189;-96
2022/02/06 11:46:31;;;;;;;0.30;0.30;;;6.60;99.90;;;;;;5047512;28;20155;-96
2022/02/06 11:49:21;;;;;;;0.30;0.30;;;6.50;99.90;;;;;;5030206;28;20182;-96
2022/02/06 11:51:57;;;;;;;0.40;0.40;;;6.50;99.90;;;;;;5043167;28;20261;-96
2022/02/06 11:54:53;;;;;;;0.50;0.40;;;6.60;99.90;;;;;;5075946;28;20240;-96
2022/02/06 11:57:25;;;;;;;0.40;0.40;;;6.60;99.90;;;;;;5085140;28;20209;-96
2022/02/06 12:00:06;;;;;;;0.60;0.40;;;6.60;99.90;;;;;;5083107;28;20177;-96
2022/02/06 12:02:34;;;;;;;0.70;0.40;;;6.60;99.90;;;;;;5081735;28;20181;-96
2022/02/06 12:05:33;;;;;;;1.63;0.30;;;6.60;99.90;;;;;;5082074;28;20165;-96
2022/02/06 12:08:10;;;;;;;0.40;0.30;;;6.60;99.90;;;;;;5040345;28;20181;-96
2022/02/06 12:10:55;;;;;;;0.30;0.30;;;6.60;99.90;;;;;;5052180;28;20180;-96
2022/02/06 12:13:32;;;;;;;0.57;0.30;;;6.60;99.90;;;;;;5069560;28;20204;-96
2022/02/06 12:16:02;;;;;;;0.40;0.30;;;6.70;99.90;;;;;;5071264;28;20180;-96
2022/02/06 12:18:32;;;;;;;0.67;0.30;;;6.60;99.90;;;;;;5067766;28;20637;-96
2022/02/06 12:21:14;;;;;;;0.60;0.30;;;6.60;99.90;;;;;;5068864;28;20185;-96
2022/02/06 12:23:55;;;;;;;0.30;0.30;;;6.60;99.90;;;;;;5083582;28;20173;-96
2022/02/06 12:26:30;;;;;;;0.30;0.30;;;6.60;99.90;;;;;;5080067;28;20173;-95
2022/02/06 12:28:59;;;;;;;0.30;0.30;;;6.70;99.90;;;;;;5079293;28;20533;-94
2022/02/06 12:31:34;;;;;;;0.53;0.40;;;6.70;99.90;;;;;;5077337;28;20548;-95
2022/02/06 12:37:06;;;;;;;0.33;0.30;;;6.70;99.90;;;;;;5063579;28;20166;-96
2022/02/06 12:39:34;;;;;;;0.30;0.30;;;6.70;99.90;;;;;;5058154;28;20211;-94
2022/02/06 12:42:04;;;;;;;0.63;0.40;;;6.60;99.90;;;;;;5058022;28;20186;-94
2022/02/06 12:44:49;;;;;;;0.40;0.40;;;6.60;99.90;;;;;;5058102;28;20186;-96
2022/02/06 12:47:15;;;;;;;0.30;0.30;;;6.50;99.90;;;;;;5058752;28;20188;-95
2022/02/06 12:49:42;;;;;;;0.37;0.30;;;6.50;99.90;;;;;;5056956;28;20601;-96
2022/02/06 12:52:08;;;;;;;0.30;0.30;;;6.50;99.90;;;;;;5057693;28;20258;-96
2022/02/06 12:54:35;;;;;;;0.40;0.30;;;6.50;99.90;;;;;;5058609;28;20640;-95
2022/02/06 12:57:08;;;;;;;0.50;0.43;;;6.40;99.90;;;;;;5056983;28;20268;-96
2022/02/06 12:59:39;;;;;;;0.70;0.30;;;6.40;99.90;;;;;;5060278;28;20201;-96
2022/02/06 13:02:07;;;;;;;0.27;0.23;;;6.40;99.90;;;;;;5057263;28;20178;-94
2022/02/06 13:04:41;;;;;;;0.33;0.30;;;6.40;99.90;;;;;;5057147;28;20512;-95
2022/02/06 13:07:12;;;;;;;0.90;0.43;;;6.40;99.90;;;;;;5058747;28;20710;-95
2022/02/06 13:09:47;;;;;;;0.30;0.30;;;6.30;99.90;;;;;;5058083;28;20210;-95
2022/02/06 13:12:31;;;;;;;0.30;0.30;;;6.30;99.90;;;;;;5058575;28;20646;-96
2022/02/06 13:18:15;;;;;;;0.30;0.30;;;6.30;99.90;;;;;;5059330;28;20224;-95
2022/02/06 13:23:31;;;;;;;1.03;0.40;;;6.30;99.90;;;;;;5059524;28;20169;-96
2022/02/06 13:26:18;;;;;;;3.70;0.30;;;6.20;99.90;;;;;;5043527;28;20272;-96
2022/02/06 13:29:00;;;;;;;0.30;0.27;;;6.20;99.90;;;;;;5061206;28;20227;-96
2022/02/06 13:31:43;;;;;;;1.60;0.47;;;6.20;99.90;;;;;;5060589;28;20222;-96
2022/02/06 13:36:41;;;;;;;0.43;0.40;;;6.10;99.90;;;;;;5059776;28;20173;-96
2022/02/06 13:39:14;;;;;;;1.60;0.30;;;6.10;99.90;;;;;;5058907;28;20174;-94
2022/02/06 13:41:40;;;;;;;0.83;0.30;;;6.00;99.90;;;;;;5057399;28;20184;-96
2022/02/06 13:44:22;;;;;;;0.37;0.20;;;6.00;99.90;;;;;;5063185;28;20201;-96
2022/02/06 13:46:48;;;;;;;0.87;0.30;;;6.00;99.90;;;;;;5055259;28;20197;-96
2022/02/06 13:49:23;;;;;;;1.10;0.30;;;6.00;99.90;;;;;;5068471;28;20280;-96
2022/02/06 13:51:52;;;;;;;0.40;0.30;;;6.00;99.90;;;;;;5070384;28;20173;-95
2022/02/06 13:54:29;;;;;;;0.63;0.30;;;6.00;99.90;;;;;;5070761;28;20188;-96
2022/02/06 13:57:01;;;;;;;0.30;0.30;;;6.00;99.90;;;;;;5071781;28;20284;-96
2022/02/06 13:59:37;;;;;;;1.80;0.30;;;5.90;99.90;;;;;;5072414;28;20178;-95
2022/02/06 14:02:12;;;;;;;0.33;0.30;;;5.90;99.90;;;;;;5068806;28;20207;-95
2022/02/06 14:04:42;;;;;;;0.30;0.30;;;5.90;99.90;;;;;;5053134;28;20249;-96
2022/02/06 14:07:23;;;;;;;0.70;0.30;;;5.90;99.90;;;;;;5069195;28;20178;-95
2022/02/06 14:10:09;;;;;;;0.90;0.30;;;5.90;99.90;;;;;;5054629;28;20178;-96
2022/02/06 14:12:49;;;;;;;0.20;0.20;;;5.90;99.90;;;;;;5067048;28;20177;-96
2022/02/06 14:15:32;;;;;;;2.13;0.33;;;5.90;99.90;;;;;;5069382;28;20166;-95
2022/02/06 14:18:09;;;;;;;0.20;0.20;;;5.90;99.90;;;;;;5067032;28;20274;-95
2022/02/06 14:20:36;;;;;;;0.40;0.30;;;5.90;99.90;;;;;;5068978;28;20182;-95
2022/02/06 14:23:04;;;;;;;0.30;0.20;;;5.90;99.90;;;;;;5065860;28;20189;-96
2022/02/06 14:25:36;;;;;;;0.27;0.27;;;5.90;99.90;;;;;;5066656;28;20182;-94
2022/02/06 14:28:23;;;;;;;0.20;0.20;;;5.90;99.90;;;;;;5068524;28;20174;-96
2022/02/06 14:30:49;;;;;;;0.20;0.20;;;5.80;99.90;;;;;;5069110;28;20233;-96
2022/02/06 14:33:27;;;;;;;0.57;0.23;;;5.80;99.90;;;;;;5065634;28;20174;-96
2022/02/06 14:36:03;;;;;;;0.10;0.10;;;5.90;99.90;;;;;;5064497;28;20170;-96
2022/02/06 14:38:45;;;;;;;0.23;0.20;;;5.80;99.90;;;;;;5058072;28;20655;-95
2022/02/06 14:43:42;;;;;;;0.20;0.20;;;5.80;99.90;;;;;;5043954;28;20514;-96
2022/02/06 14:46:10;;;;;;;0.33;0.33;;;5.80;99.90;;;;;;5041915;28;20169;-96
2022/02/06 14:48:38;;;;;;;1.20;0.30;;;5.70;99.90;;;;;;5043975;28;20171;-96
2022/02/06 14:51:04;;;;;;;0.40;0.40;;;5.70;99.90;;;;;;5055638;28;20212;-96
2022/02/06 14:53:31;;;;;;;0.67;0.33;;;5.80;99.90;;;;;;5064884;28;20216;-95
2022/02/06 14:56:00;;;;;;;0.73;0.40;;;5.70;99.90;;;;;;5066381;28;20170;-96
2022/02/06 14:58:29;;;;;;;0.70;0.30;;;5.80;99.90;;;;;;5063907;28;20213;-96
2022/02/06 15:00:57;;;;;;;0.30;0.20;;;5.80;99.90;;;;;;5060495;28;20261;-96
2022/02/06 15:03:24;;;;;;;1.03;0.30;;;5.70;99.90;;;;;;5059008;28;20260;-94
2022/02/06 15:05:51;;;;;;;0.97;0.50;;;5.60;99.90;;;;;;5074147;28;20169;-96
2022/02/06 15:08:18;;;;;;;1.67;0.30;;;5.50;99.90;;;;;;5082886;28;20169;-95
2022/02/06 15:10:44;;;;;;;0.60;0.30;;;5.40;99.90;;;;;;5061336;28;20248;-96
2022/02/06 15:13:18;;;;;;;2.73;0.50;;;5.30;99.90;;;;;;5058094;28;20608;-96
2022/02/06 15:15:50;;;;;;;1.27;0.80;;;5.20;99.90;;;;;;5058311;28;20177;-96
2022/02/06 15:18:35;;;;;;;0.60;0.60;;;5.20;99.90;;;;;;5051065;28;20208;-95
2022/02/06 15:21:03;;;;;;;1.67;0.73;;;5.10;99.90;;;;;;5057113;28;20182;-95
2022/02/06 15:23:29;;;;;;;1.07;0.70;;;5.10;99.90;;;;;;5061552;28;20260;-95
2022/02/06 15:25:55;;;;;;;1.13;0.30;;;5.00;99.90;;;;;;5063301;28;20242;-94
2022/02/06 15:28:23;;;;;;;1.47;0.70;;;5.00;99.90;;;;;;5076530;28;20181;-96
2022/02/06 15:30:49;;;;;;;0.93;0.60;;;4.90;99.90;;;;;;5070184;28;20232;-95
2022/02/06 15:33:16;;;;;;;1.20;0.73;;;4.90;99.90;;;;;;5062336;28;20181;-95